Pagrindinis puslapis
METAR-TAF:

METAR-TAF

Oro uostai :

Carolina, Maranjanas, Brazilija

platuma: 07-19S, ilguma: 047-28W, Aukštis: 183 m

Dabartinis oras

Ataskaita buvo paskelbta 3 valandos ir 11 minutes, ne 20:00 UTC
Vėjas 4 kt iš Rytų/Šiaurės Rytų
Temperatūra 37°C
Drėgmė 25%
Slėgis 1008 hPa
Matomumas 10 km arba daugiau
nėra debesų žemiau 1500 m ir nėra kamuolinių lietaus debesų

METAR: SBCI 162000Z 07004KT CAVOK 37/14 Q1008

Laikas: 20:11 (23:11 UTC)


TAF: trūkstamas

Orai ataskaitas ir orų prognozės (METAR, TAF).

turimą stotys yra geltonos ir raudonos taškus žemėlapyje.

Perkelti pele per norėdami pamatyti stoties vardą.

Tada spustelėkite, norėdami matyti oro stebėjimo ir prognozės.

Norėdami pakeisti žemėlapį: spustelėkite ant žalios mygtukų su juodo kryžiaus žemyn,; žalią mygtuką su brūkšneliu, jei norite nutolinti; arba žalių rodyklių gretimoms žemėlapius.


METAR-TAF: